SHT weather

Shepparton Airport
Victoria, Australia

Public forecast

Using degrees Celsius for public forecast. Weather courtesy of forecast.io.

Closest aviation weather report (METAR) to Shepparton Airport

Closest report is Wangaratta Airport, 44.2 nm (81.8 km) E. Retrieved 2019/12/12 05:00 UTC (47 minutes ago):

YWGT 120500Z AUTO 23017KT 9999 // NCD 26/02 Q1012

Closest aviation forecast (TAF) to Shepparton Airport

Closest forecast is Wangaratta Airport, 44.2 nm (81.8 km) E. Retrieved 2019-12-12 02:03 UTC (4 hours ago):

TAF YWGT 120047Z 1202/1214 24016G26KT CAVOK FM121000 21010KT CAVOK